createdAt,value
2022-08-19T00:01:59.031Z,8.35
2022-08-19T00:07:00.905Z,8.48
2022-08-19T00:12:02.422Z,8.90
2022-08-19T00:17:04.236Z,8.45
2022-08-19T00:22:06.341Z,8.85
2022-08-19T00:27:25.698Z,9.68
2022-08-19T00:32:28.405Z,8.77
2022-08-19T00:37:31.177Z,8.77
2022-08-19T00:42:32.701Z,8.68
2022-08-19T00:47:34.103Z,9.00
2022-08-19T00:52:38.976Z,9.30
2022-08-19T00:57:42.622Z,9.63
2022-08-19T01:02:44.293Z,9.70
2022-08-19T01:07:45.858Z,9.75
2022-08-19T01:12:48.469Z,10.23
2022-08-19T01:17:50.337Z,11.02
2022-08-19T01:22:55.373Z,9.70
2022-08-19T01:28:01.640Z,9.82
2022-08-19T01:33:11.371Z,10.77
2022-08-19T01:38:24.546Z,9.57
2022-08-19T01:43:25.941Z,9.57
2022-08-19T01:48:31.323Z,10.02
2022-08-19T01:53:33.780Z,10.48
2022-08-19T01:58:37.901Z,9.45
2022-08-19T02:03:39.297Z,9.77
2022-08-19T02:08:40.924Z,9.60
2022-08-19T02:13:42.381Z,9.18
2022-08-19T02:18:44.836Z,9.63
2022-08-19T02:23:46.655Z,10.35
2022-08-19T02:28:49.120Z,9.80
2022-08-19T02:33:51.480Z,10.20
2022-08-19T02:38:54.314Z,10.25
2022-08-19T02:44:29.068Z,9.65
2022-08-19T02:49:19.429Z,10.63
2022-08-19T02:54:20.872Z,9.15
2022-08-19T02:59:22.884Z,9.93
2022-08-19T03:04:25.328Z,10.23
2022-08-19T03:09:26.872Z,10.75
2022-08-19T03:14:31.028Z,10.30
2022-08-19T03:19:32.571Z,10.45
2022-08-19T03:24:34.020Z,10.63
2022-08-19T03:29:43.163Z,10.77
2022-08-19T03:39:46.789Z,9.95
2022-08-19T03:44:48.341Z,10.57
2022-08-19T03:49:49.753Z,11.05
2022-08-19T03:54:51.215Z,11.32
2022-08-19T03:59:52.898Z,11.05
2022-08-19T04:04:55.404Z,10.93
2022-08-19T04:09:56.899Z,10.93
2022-08-19T04:14:59.351Z,10.90
2022-08-19T04:20:00.757Z,10.35
2022-08-19T04:25:02.552Z,10.88
2022-08-19T04:30:05.024Z,10.15
2022-08-19T04:35:16.843Z,11.15
2022-08-19T04:40:48.223Z,10.18
2022-08-19T04:45:49.659Z,10.05
2022-08-19T04:50:58.759Z,10.30
2022-08-19T04:56:01.946Z,10.10
2022-08-19T05:01:03.890Z,10.20
2022-08-19T05:06:08.338Z,10.18
2022-08-19T05:11:14.134Z,10.02
2022-08-19T05:16:16.628Z,11.73
2022-08-19T05:21:38.467Z,11.00
2022-08-19T05:26:41.161Z,11.18
2022-08-19T05:31:43.020Z,10.38
2022-08-19T05:36:46.078Z,11.30
2022-08-19T05:41:48.806Z,11.43
2022-08-19T05:46:50.313Z,10.18
2022-08-19T05:51:51.837Z,10.77
2022-08-19T05:56:54.168Z,11.43
2022-08-19T06:01:58.013Z,9.88
2022-08-19T06:06:59.578Z,10.90
2022-08-19T06:12:02.211Z,10.77
2022-08-19T06:17:07.065Z,10.68
2022-08-19T06:22:09.022Z,10.73
2022-08-19T06:27:10.585Z,10.85
2022-08-19T06:32:12.248Z,10.23
2022-08-19T06:37:14.121Z,10.93
2022-08-19T06:42:18.179Z,9.93
2022-08-19T06:47:23.375Z,9.00
2022-08-19T06:52:26.832Z,9.20
2022-08-19T06:57:29.345Z,8.75
2022-08-19T07:02:30.789Z,8.88
2022-08-19T07:07:32.577Z,9.18
2022-08-19T07:12:36.056Z,8.35
2022-08-19T07:17:41.706Z,8.38
2022-08-19T07:22:43.641Z,7.80
2022-08-19T07:27:46.399Z,7.43
2022-08-19T07:32:52.468Z,7.38
2022-08-19T07:37:54.683Z,7.20
2022-08-19T07:42:56.271Z,7.70
2022-08-19T07:47:57.710Z,7.75
2022-08-19T07:52:59.122Z,8.95
2022-08-19T07:58:00.788Z,7.43
2022-08-19T08:03:04.604Z,6.78
2022-08-19T08:08:27.716Z,7.70
2022-08-19T08:13:29.318Z,7.93
2022-08-19T08:18:30.823Z,7.15
2022-08-19T08:23:32.653Z,7.93
2022-08-19T08:28:34.397Z,7.40
2022-08-19T08:33:35.890Z,6.65
2022-08-19T08:38:41.705Z,6.60
2022-08-19T08:43:46.065Z,6.57
2022-08-19T08:48:47.450Z,5.97
2022-08-19T08:53:56.216Z,6.07
2022-08-19T08:59:20.008Z,5.45
2022-08-19T09:04:21.455Z,5.95
2022-08-19T09:09:25.288Z,5.78
2022-08-19T09:14:52.561Z,5.13
2022-08-19T09:19:58.564Z,7.88
2022-08-19T09:25:00.103Z,5.35
2022-08-19T09:30:01.585Z,5.82
2022-08-19T09:35:03.552Z,5.40
2022-08-19T09:40:12.076Z,6.07
2022-08-19T09:45:14.591Z,6.80
2022-08-19T09:50:16.365Z,5.00
2022-08-19T09:55:18.597Z,5.35
2022-08-19T10:00:20.060Z,5.57
2022-08-19T10:05:42.493Z,4.88
2022-08-19T10:10:46.686Z,5.00
2022-08-19T10:15:51.324Z,4.55
2022-08-19T10:20:55.528Z,4.10
2022-08-19T10:26:00.401Z,3.80
2022-08-19T10:31:09.245Z,4.22
2022-08-19T10:36:12.711Z,4.03
2022-08-19T10:41:15.888Z,4.28
2022-08-19T10:46:17.383Z,4.07
2022-08-19T10:51:45.829Z,3.97
2022-08-19T10:56:52.286Z,5.05
2022-08-19T11:01:54.328Z,3.75
2022-08-19T11:06:58.437Z,4.50
2022-08-19T11:11:59.842Z,4.18
2022-08-19T11:17:05.106Z,3.85
2022-08-19T11:22:09.417Z,4.22
2022-08-19T11:27:12.262Z,3.75
2022-08-19T11:32:14.013Z,4.20
2022-08-19T11:37:16.725Z,4.35
2022-08-19T11:42:37.211Z,4.45
2022-08-19T11:47:39.703Z,5.18
2022-08-19T11:52:41.124Z,4.25
2022-08-19T11:57:44.484Z,3.80
2022-08-19T12:02:45.940Z,4.07
2022-08-19T12:07:47.403Z,3.78
2022-08-19T12:12:54.670Z,4.38
2022-08-19T12:18:00.492Z,4.82
2022-08-19T12:23:01.910Z,3.63
2022-08-19T12:28:04.350Z,4.60
2022-08-19T12:33:06.226Z,4.03
2022-08-19T12:38:07.803Z,3.95
2022-08-19T12:43:09.257Z,4.10
2022-08-19T12:48:33.544Z,4.07
2022-08-19T12:53:32.092Z,3.80
2022-08-19T12:58:36.057Z,4.20
2022-08-19T13:03:40.555Z,3.78
2022-08-19T13:08:42.620Z,4.38
2022-08-19T13:13:49.041Z,4.13
2022-08-19T13:18:53.933Z,3.88
2022-08-19T13:23:55.475Z,4.05
2022-08-19T13:29:15.715Z,3.92
2022-08-19T13:34:18.161Z,3.97
2022-08-19T13:39:20.260Z,4.13
2022-08-19T13:44:21.684Z,4.85
2022-08-19T13:49:24.198Z,4.38
2022-08-19T13:54:25.992Z,4.85
2022-08-19T13:59:27.396Z,3.95
2022-08-19T14:04:28.787Z,4.20
2022-08-19T14:09:30.708Z,4.20
2022-08-19T14:14:32.558Z,4.78
2022-08-19T14:19:34.167Z,5.00
2022-08-19T14:24:37.844Z,5.50
2022-08-19T14:29:39.231Z,4.55
2022-08-19T14:34:40.824Z,4.32
2022-08-19T14:39:43.107Z,4.50
2022-08-19T14:44:44.574Z,4.60
2022-08-19T14:49:48.589Z,4.28
2022-08-19T14:54:52.420Z,4.22
2022-08-19T14:59:53.993Z,4.35
2022-08-19T15:04:58.396Z,4.10
2022-08-19T15:10:00.857Z,4.15
2022-08-19T15:15:02.624Z,3.90
2022-08-19T15:20:04.848Z,4.43
2022-08-19T15:25:07.476Z,4.45
2022-08-19T15:30:09.716Z,4.40
2022-08-19T15:35:11.134Z,4.50
2022-08-19T15:40:12.733Z,4.43
2022-08-19T15:45:14.779Z,4.40
2022-08-19T15:50:17.769Z,4.53
2022-08-19T15:55:32.402Z,4.85
2022-08-19T16:00:53.800Z,4.10
2022-08-19T16:06:13.972Z,4.07
2022-08-19T16:11:20.056Z,4.47
2022-08-19T16:16:22.280Z,6.07
2022-08-19T16:21:33.100Z,4.75
2022-08-19T16:26:34.945Z,5.80
2022-08-19T16:31:36.941Z,4.53
2022-08-19T16:36:41.815Z,4.65
2022-08-19T16:41:44.552Z,4.88
2022-08-19T16:46:47.307Z,4.70
2022-08-19T16:52:02.667Z,5.88
2022-08-19T16:57:06.701Z,4.75
2022-08-19T17:02:14.522Z,5.22
2022-08-19T17:07:15.935Z,5.25
2022-08-19T17:12:17.340Z,5.63
2022-08-19T17:17:22.902Z,6.05
2022-08-19T17:22:26.356Z,5.47
2022-08-19T17:27:31.424Z,5.85
2022-08-19T17:32:34.893Z,5.28
2022-08-19T17:37:36.847Z,6.85
2022-08-19T17:42:38.613Z,5.63
2022-08-19T17:47:40.592Z,5.63
2022-08-19T17:52:43.016Z,5.47
2022-08-19T17:57:46.787Z,6.72
2022-08-19T18:02:52.852Z,6.28
2022-08-19T18:07:57.032Z,6.65
2022-08-19T18:12:59.276Z,6.28
2022-08-19T18:18:00.665Z,5.65
2022-08-19T18:23:44.500Z,6.82
2022-08-19T18:28:25.869Z,7.40
2022-08-19T18:33:27.371Z,7.00
2022-08-19T18:38:47.304Z,6.40
2022-08-19T18:44:07.684Z,6.88
2022-08-19T18:49:10.457Z,7.32
2022-08-19T18:54:12.627Z,7.55
2022-08-19T18:59:17.905Z,6.78
2022-08-19T19:04:20.232Z,6.68
2022-08-19T19:09:22.746Z,6.68
2022-08-19T19:14:47.580Z,7.00
2022-08-19T19:19:47.340Z,6.53
2022-08-19T19:24:49.132Z,6.68
2022-08-19T19:29:52.284Z,6.88
2022-08-19T19:34:54.464Z,6.85
2022-08-19T19:39:56.331Z,7.63
2022-08-19T19:44:58.733Z,7.85
2022-08-19T19:50:16.290Z,6.75
2022-08-19T19:55:18.433Z,7.05
2022-08-19T20:00:21.236Z,7.28
2022-08-19T20:05:23.178Z,7.65
2022-08-19T20:10:25.185Z,7.15
2022-08-19T20:15:27.368Z,7.80
2022-08-19T20:20:28.792Z,7.65
2022-08-19T20:25:32.276Z,7.70
2022-08-19T20:30:33.868Z,7.47
2022-08-19T20:35:36.021Z,7.28
2022-08-19T20:40:37.980Z,6.90
2022-08-19T20:45:39.544Z,7.35
2022-08-19T20:50:41.026Z,7.20
2022-08-19T20:55:44.405Z,7.50
2022-08-19T21:00:46.041Z,8.27
2022-08-19T21:05:47.809Z,7.93
2022-08-19T21:10:49.801Z,8.45
2022-08-19T21:15:51.448Z,7.38
2022-08-19T21:20:53.740Z,8.15
2022-08-19T21:25:56.019Z,7.55
2022-08-19T21:30:58.081Z,9.20
2022-08-19T21:36:00.551Z,8.48
2022-08-19T21:41:05.952Z,8.40
2022-08-19T21:46:07.935Z,7.45
2022-08-19T21:51:09.443Z,8.05
2022-08-19T21:56:11.591Z,7.45
2022-08-19T22:01:13.053Z,8.15
2022-08-19T22:06:14.544Z,7.75
2022-08-19T22:11:16.034Z,7.63
2022-08-19T22:16:18.197Z,8.95
2022-08-19T22:21:40.391Z,8.35
2022-08-19T22:26:42.038Z,8.65
2022-08-19T22:31:44.462Z,8.15
2022-08-19T22:36:45.906Z,8.45
2022-08-19T22:41:47.327Z,7.90
2022-08-19T22:46:49.248Z,8.27
2022-08-19T22:52:09.193Z,8.88
2022-08-19T22:57:11.432Z,7.97
2022-08-19T23:02:18.081Z,8.75
2022-08-19T23:07:23.722Z,7.65
2022-08-19T23:12:27.303Z,8.45
2022-08-19T23:17:29.785Z,8.02
2022-08-19T23:22:31.261Z,8.05
2022-08-19T23:27:51.370Z,8.45
2022-08-19T23:37:54.440Z,7.88
2022-08-19T23:42:56.313Z,8.93
2022-08-19T23:47:58.205Z,7.82
2022-08-19T23:53:00.233Z,8.60
2022-08-19T23:58:02.658Z,8.30
